sensor_id;sensor_type;location;lat;lon;timestamp;temperature;humidity
69533;DHT22;56729;52.036;5.332;2023-11-21T00:00:48;7.30;99.90
69533;DHT22;56729;52.036;5.332;2023-11-21T00:01:50;7.30;99.90
69533;DHT22;56729;52.036;5.332;2023-11-21T00:02:52;7.30;99.90
69533;DHT22;56729;52.036;5.332;2023-11-21T00:03:54;7.30;99.90
69533;DHT22;56729;52.036;5.332;2023-11-21T00:04:57;7.20;99.90
69533;DHT22;56729;52.036;5.332;2023-11-21T00:05:59;7.20;99.90
69533;DHT22;56729;52.036;5.332;2023-11-21T00:07:02;7.20;99.90
69533;DHT22;56729;52.036;5.332;2023-11-21T00:08:04;7.20;99.90
69533;DHT22;56729;52.036;5.332;2023-11-21T00:09:06;7.20;99.90
69533;DHT22;56729;52.036;5.332;2023-11-21T00:10:11;7.10;99.90
69533;DHT22;56729;52.036;5.332;2023-11-21T00:11:16;7.10;99.90
69533;DHT22;56729;52.036;5.332;2023-11-21T00:12:18;7.10;99.90
69533;DHT22;56729;52.036;5.332;2023-11-21T00:13:19;7.10;99.90
69533;DHT22;56729;52.036;5.332;2023-11-21T00:14:21;7.10;99.90
69533;DHT22;56729;52.036;5.332;2023-11-21T00:15:23;7.10;99.90
69533;DHT22;56729;52.036;5.332;2023-11-21T00:16:25;7.00;99.90
69533;DHT22;56729;52.036;5.332;2023-11-21T00:17:28;7.00;99.90
69533;DHT22;56729;52.036;5.332;2023-11-21T00:18:30;7.00;99.90
69533;DHT22;56729;52.036;5.332;2023-11-21T00:19:32;7.00;99.90
69533;DHT22;56729;52.036;5.332;2023-11-21T00:20:35;7.00;99.90
69533;DHT22;56729;52.036;5.332;2023-11-21T00:21:37;7.10;99.90
69533;DHT22;56729;52.036;5.332;2023-11-21T00:22:39;7.10;99.90
69533;DHT22;56729;52.036;5.332;2023-11-21T00:23:43;7.20;99.90
69533;DHT22;56729;52.036;5.332;2023-11-21T00:24:45;7.20;99.90
69533;DHT22;56729;52.036;5.332;2023-11-21T00:25:47;7.10;99.90
69533;DHT22;56729;52.036;5.332;2023-11-21T00:26:49;7.10;99.90
69533;DHT22;56729;52.036;5.332;2023-11-21T00:27:52;7.20;99.90
69533;DHT22;56729;52.036;5.332;2023-11-21T00:28:55;7.20;99.90
69533;DHT22;56729;52.036;5.332;2023-11-21T00:29:58;7.20;99.90
69533;DHT22;56729;52.036;5.332;2023-11-21T00:30:59;7.20;99.90
69533;DHT22;56729;52.036;5.332;2023-11-21T00:32:01;7.10;99.90
69533;DHT22;56729;52.036;5.332;2023-11-21T00:33:03;7.10;99.90
69533;DHT22;56729;52.036;5.332;2023-11-21T00:34:06;7.10;99.90
69533;DHT22;56729;52.036;5.332;2023-11-21T00:35:09;7.10;99.90
69533;DHT22;56729;52.036;5.332;2023-11-21T00:36:10;7.10;99.90
69533;DHT22;56729;52.036;5.332;2023-11-21T00:37:13;7.20;99.90
69533;DHT22;56729;52.036;5.332;2023-11-21T00:38:16;7.20;99.90
69533;DHT22;56729;52.036;5.332;2023-11-21T00:39:21;7.20;99.90
69533;DHT22;56729;52.036;5.332;2023-11-21T00:40:24;7.20;99.90
69533;DHT22;56729;52.036;5.332;2023-11-21T00:41:27;7.20;99.90
69533;DHT22;56729;52.036;5.332;2023-11-21T00:42:29;7.20;99.90
69533;DHT22;56729;52.036;5.332;2023-11-21T00:43:31;7.20;99.90
69533;DHT22;56729;52.036;5.332;2023-11-21T00:44:37;7.20;99.90
69533;DHT22;56729;52.036;5.332;2023-11-21T00:45:40;7.10;99.90
69533;DHT22;56729;52.036;5.332;2023-11-21T00:46:42;7.10;99.90
69533;DHT22;56729;52.036;5.332;2023-11-21T00:47:45;7.10;99.90
69533;DHT22;56729;52.036;5.332;2023-11-21T00:48:47;7.10;99.90
69533;DHT22;56729;52.036;5.332;2023-11-21T00:49:51;7.10;99.90
69533;DHT22;56729;52.036;5.332;2023-11-21T00:50:53;7.10;99.90
69533;DHT22;56729;52.036;5.332;2023-11-21T00:51:56;7.10;99.90
69533;DHT22;56729;52.036;5.332;2023-11-21T00:53:00;7.10;99.90
69533;DHT22;56729;52.036;5.332;2023-11-21T00:54:03;7.10;99.90
69533;DHT22;56729;52.036;5.332;2023-11-21T00:55:06;7.10;99.90
69533;DHT22;56729;52.036;5.332;2023-11-21T00:56:09;7.10;99.90
69533;DHT22;56729;52.036;5.332;2023-11-21T00:57:11;7.10;99.90
69533;DHT22;56729;52.036;5.332;2023-11-21T00:58:13;7.20;99.90
69533;DHT22;56729;52.036;5.332;2023-11-21T00:59:16;7.20;99.90
69533;DHT22;56729;52.036;5.332;2023-11-21T01:00:18;7.20;99.90
69533;DHT22;56729;52.036;5.332;2023-11-21T01:01:20;7.20;99.90
69533;DHT22;56729;52.036;5.332;2023-11-21T01:02:25;7.20;99.90
69533;DHT22;56729;52.036;5.332;2023-11-21T01:03:27;7.20;99.90
69533;DHT22;56729;52.036;5.332;2023-11-21T01:04:29;7.20;99.90
69533;DHT22;56729;52.036;5.332;2023-11-21T01:05:31;7.20;99.90
69533;DHT22;56729;52.036;5.332;2023-11-21T01:06:33;7.20;99.90
69533;DHT22;56729;52.036;5.332;2023-11-21T01:07:35;7.20;99.90
69533;DHT22;56729;52.036;5.332;2023-11-21T01:08:38;7.20;99.90
69533;DHT22;56729;52.036;5.332;2023-11-21T01:09:40;7.20;99.90
69533;DHT22;56729;52.036;5.332;2023-11-21T01:10:42;7.20;99.90
69533;DHT22;56729;52.036;5.332;2023-11-21T01:11:44;7.20;99.90
69533;DHT22;56729;52.036;5.332;2023-11-21T01:12:46;7.20;99.90
69533;DHT22;56729;52.036;5.332;2023-11-21T01:13:48;7.20;99.90
69533;DHT22;56729;52.036;5.332;2023-11-21T01:14:50;7.20;99.90
69533;DHT22;56729;52.036;5.332;2023-11-21T01:15:52;7.20;99.90
69533;DHT22;56729;52.036;5.332;2023-11-21T01:16:54;7.20;99.90
69533;DHT22;56729;52.036;5.332;2023-11-21T01:17:57;7.20;99.90
69533;DHT22;56729;52.036;5.332;2023-11-21T01:18:59;7.20;99.90
69533;DHT22;56729;52.036;5.332;2023-11-21T01:20:02;7.20;99.90
69533;DHT22;56729;52.036;5.332;2023-11-21T01:21:05;7.20;99.90
69533;DHT22;56729;52.036;5.332;2023-11-21T01:22:07;7.20;99.90
69533;DHT22;56729;52.036;5.332;2023-11-21T01:23:10;7.10;99.90
69533;DHT22;56729;52.036;5.332;2023-11-21T01:24:12;7.20;99.90
69533;DHT22;56729;52.036;5.332;2023-11-21T01:25:14;7.20;99.90
69533;DHT22;56729;52.036;5.332;2023-11-21T01:26:18;7.20;99.90
69533;DHT22;56729;52.036;5.332;2023-11-21T01:27:22;7.20;99.90
69533;DHT22;56729;52.036;5.332;2023-11-21T01:28:24;7.20;99.90
69533;DHT22;56729;52.036;5.332;2023-11-21T01:29:26;7.10;99.90
69533;DHT22;56729;52.036;5.332;2023-11-21T01:30:30;7.10;99.90
69533;DHT22;56729;52.036;5.332;2023-11-21T01:31:34;7.10;99.90
69533;DHT22;56729;52.036;5.332;2023-11-21T01:32:36;7.20;99.90
69533;DHT22;56729;52.036;5.332;2023-11-21T01:33:39;7.10;99.90
69533;DHT22;56729;52.036;5.332;2023-11-21T01:34:41;7.10;99.90
69533;DHT22;56729;52.036;5.332;2023-11-21T01:35:43;7.10;99.90
69533;DHT22;56729;52.036;5.332;2023-11-21T01:36:46;7.10;99.90
69533;DHT22;56729;52.036;5.332;2023-11-21T01:37:48;7.10;99.90
69533;DHT22;56729;52.036;5.332;2023-11-21T01:38:50;7.10;99.90
69533;DHT22;56729;52.036;5.332;2023-11-21T01:39:52;7.20;99.90
69533;DHT22;56729;52.036;5.332;2023-11-21T01:40:55;7.20;99.90
69533;DHT22;56729;52.036;5.332;2023-11-21T01:41:57;7.20;99.90
69533;DHT22;56729;52.036;5.332;2023-11-21T01:43:02;7.20;99.90
69533;DHT22;56729;52.036;5.332;2023-11-21T01:44:06;7.20;99.90
69533;DHT22;56729;52.036;5.332;2023-11-21T01:45:11;7.20;99.90
69533;DHT22;56729;52.036;5.332;2023-11-21T01:46:14;7.10;99.90
69533;DHT22;56729;52.036;5.332;2023-11-21T01:47:17;7.10;99.90
69533;DHT22;56729;52.036;5.332;2023-11-21T01:48:19;7.10;99.90
69533;DHT22;56729;52.036;5.332;2023-11-21T01:49:23;7.10;99.90
69533;DHT22;56729;52.036;5.332;2023-11-21T01:50:25;7.10;99.90
69533;DHT22;56729;52.036;5.332;2023-11-21T01:51:28;7.10;99.90
69533;DHT22;56729;52.036;5.332;2023-11-21T01:52:30;7.10;99.90
69533;DHT22;56729;52.036;5.332;2023-11-21T01:53:32;7.10;99.90
69533;DHT22;56729;52.036;5.332;2023-11-21T01:54:34;7.20;99.90
69533;DHT22;56729;52.036;5.332;2023-11-21T01:55:40;7.20;99.90
69533;DHT22;56729;52.036;5.332;2023-11-21T01:56:46;7.10;99.90
69533;DHT22;56729;52.036;5.332;2023-11-21T01:57:49;7.20;99.90
69533;DHT22;56729;52.036;5.332;2023-11-21T01:58:51;7.20;99.90
69533;DHT22;56729;52.036;5.332;2023-11-21T01:59:54;7.20;99.90
69533;DHT22;56729;52.036;5.332;2023-11-21T02:00:56;7.20;99.90
69533;DHT22;56729;52.036;5.332;2023-11-21T02:01:58;7.20;99.90
69533;DHT22;56729;52.036;5.332;2023-11-21T02:03:00;7.20;99.90
69533;DHT22;56729;52.036;5.332;2023-11-21T02:04:03;7.20;99.90
69533;DHT22;56729;52.036;5.332;2023-11-21T02:05:05;7.20;99.90
69533;DHT22;56729;52.036;5.332;2023-11-21T02:06:07;7.20;99.90
69533;DHT22;56729;52.036;5.332;2023-11-21T02:07:10;7.20;99.90
69533;DHT22;56729;52.036;5.332;2023-11-21T02:08:12;7.20;99.90
69533;DHT22;56729;52.036;5.332;2023-11-21T02:09:14;7.30;99.90
69533;DHT22;56729;52.036;5.332;2023-11-21T02:10:17;7.30;99.90
69533;DHT22;56729;52.036;5.332;2023-11-21T02:11:24;7.30;99.90
69533;DHT22;56729;52.036;5.332;2023-11-21T02:12:27;7.30;99.90
69533;DHT22;56729;52.036;5.332;2023-11-21T02:13:33;7.30;99.90
69533;DHT22;56729;52.036;5.332;2023-11-21T02:14:35;7.30;99.90
69533;DHT22;56729;52.036;5.332;2023-11-21T02:15:37;7.40;99.90
69533;DHT22;56729;52.036;5.332;2023-11-21T02:16:40;7.40;99.90
69533;DHT22;56729;52.036;5.332;2023-11-21T02:17:42;7.40;99.90
69533;DHT22;56729;52.036;5.332;2023-11-21T02:18:48;7.40;99.90
69533;DHT22;56729;52.036;5.332;2023-11-21T02:19:51;7.50;99.90
69533;DHT22;56729;52.036;5.332;2023-11-21T02:20:53;7.50;99.90
69533;DHT22;56729;52.036;5.332;2023-11-21T02:21:56;7.50;99.90
69533;DHT22;56729;52.036;5.332;2023-11-21T02:23:02;7.50;99.90
69533;DHT22;56729;52.036;5.332;2023-11-21T02:24:06;7.60;99.90
69533;DHT22;56729;52.036;5.332;2023-11-21T02:25:08;7.60;99.90
69533;DHT22;56729;52.036;5.332;2023-11-21T02:26:10;7.60;99.90
69533;DHT22;56729;52.036;5.332;2023-11-21T02:27:13;7.70;99.90
69533;DHT22;56729;52.036;5.332;2023-11-21T02:28:15;7.70;99.90
69533;DHT22;56729;52.036;5.332;2023-11-21T02:29:27;7.70;99.90
69533;DHT22;56729;52.036;5.332;2023-11-21T02:30:30;7.70;99.90
69533;DHT22;56729;52.036;5.332;2023-11-21T02:31:36;7.70;99.90
69533;DHT22;56729;52.036;5.332;2023-11-21T02:32:40;7.70;99.90
69533;DHT22;56729;52.036;5.332;2023-11-21T02:33:50;7.70;99.90
69533;DHT22;56729;52.036;5.332;2023-11-21T02:34:52;7.70;99.90
69533;DHT22;56729;52.036;5.332;2023-11-21T02:35:55;7.70;99.90
69533;DHT22;56729;52.036;5.332;2023-11-21T02:36:57;7.70;99.90
69533;DHT22;56729;52.036;5.332;2023-11-21T02:37:59;7.70;99.90
69533;DHT22;56729;52.036;5.332;2023-11-21T02:39:01;7.60;99.90
69533;DHT22;56729;52.036;5.332;2023-11-21T02:40:04;7.70;99.90
69533;DHT22;56729;52.036;5.332;2023-11-21T02:41:08;7.70;99.90
69533;DHT22;56729;52.036;5.332;2023-11-21T02:42:10;7.60;99.90
69533;DHT22;56729;52.036;5.332;2023-11-21T02:43:12;7.60;99.90
69533;DHT22;56729;52.036;5.332;2023-11-21T02:44:14;7.60;99.90
69533;DHT22;56729;52.036;5.332;2023-11-21T02:45:18;7.60;99.90
69533;DHT22;56729;52.036;5.332;2023-11-21T02:46:21;7.60;99.90
69533;DHT22;56729;52.036;5.332;2023-11-21T02:47:23;7.70;99.90
69533;DHT22;56729;52.036;5.332;2023-11-21T02:48:25;7.70;99.90
69533;DHT22;56729;52.036;5.332;2023-11-21T02:49:27;7.70;99.90
69533;DHT22;56729;52.036;5.332;2023-11-21T02:50:30;7.70;99.90
69533;DHT22;56729;52.036;5.332;2023-11-21T02:51:33;7.70;99.90
69533;DHT22;56729;52.036;5.332;2023-11-21T02:52:35;7.70;99.90
69533;DHT22;56729;52.036;5.332;2023-11-21T02:53:37;7.70;99.90
69533;DHT22;56729;52.036;5.332;2023-11-21T02:54:40;7.70;99.90
69533;DHT22;56729;52.036;5.332;2023-11-21T02:55:42;7.70;99.90
69533;DHT22;56729;52.036;5.332;2023-11-21T02:56:44;7.70;99.90
69533;DHT22;56729;52.036;5.332;2023-11-21T02:57:46;7.70;99.90
69533;DHT22;56729;52.036;5.332;2023-11-21T02:58:49;7.70;99.90
69533;DHT22;56729;52.036;5.332;2023-11-21T02:59:51;7.70;99.90
69533;DHT22;56729;52.036;5.332;2023-11-21T03:00:53;7.80;99.90
69533;DHT22;56729;52.036;5.332;2023-11-21T03:01:55;7.80;99.90
69533;DHT22;56729;52.036;5.332;2023-11-21T03:02:58;7.80;99.90
69533;DHT22;56729;52.036;5.332;2023-11-21T03:04:01;7.80;99.90
69533;DHT22;56729;52.036;5.332;2023-11-21T03:05:03;7.80;99.90
69533;DHT22;56729;52.036;5.332;2023-11-21T03:06:07;7.80;99.90
69533;DHT22;56729;52.036;5.332;2023-11-21T03:07:09;7.80;99.90
69533;DHT22;56729;52.036;5.332;2023-11-21T03:08:11;7.80;99.90
69533;DHT22;56729;52.036;5.332;2023-11-21T03:09:13;7.90;99.90
69533;DHT22;56729;52.036;5.332;2023-11-21T03:10:15;7.90;99.90
69533;DHT22;56729;52.036;5.332;2023-11-21T03:11:17;7.90;99.90
69533;DHT22;56729;52.036;5.332;2023-11-21T03:12:20;7.90;99.90
69533;DHT22;56729;52.036;5.332;2023-11-21T03:13:22;7.90;99.90
69533;DHT22;56729;52.036;5.332;2023-11-21T03:14:24;7.90;99.90
69533;DHT22;56729;52.036;5.332;2023-11-21T03:15:26;7.90;99.90
69533;DHT22;56729;52.036;5.332;2023-11-21T03:16:29;7.90;99.90
69533;DHT22;56729;52.036;5.332;2023-11-21T03:17:31;7.90;99.90
69533;DHT22;56729;52.036;5.332;2023-11-21T03:18:33;7.90;99.90
69533;DHT22;56729;52.036;5.332;2023-11-21T03:19:35;8.00;99.90
69533;DHT22;56729;52.036;5.332;2023-11-21T03:20:37;8.00;99.90
69533;DHT22;56729;52.036;5.332;2023-11-21T03:21:39;8.00;99.90
69533;DHT22;56729;52.036;5.332;2023-11-21T03:22:41;8.00;99.90
69533;DHT22;56729;52.036;5.332;2023-11-21T03:23:42;8.00;99.90
69533;DHT22;56729;52.036;5.332;2023-11-21T03:24:44;8.00;99.90
69533;DHT22;56729;52.036;5.332;2023-11-21T03:25:46;8.00;99.90
69533;DHT22;56729;52.036;5.332;2023-11-21T03:26:48;8.10;99.90
69533;DHT22;56729;52.036;5.332;2023-11-21T03:27:50;8.10;99.90
69533;DHT22;56729;52.036;5.332;2023-11-21T03:28:52;8.10;99.90
69533;DHT22;56729;52.036;5.332;2023-11-21T03:29:55;8.10;99.90
69533;DHT22;56729;52.036;5.332;2023-11-21T03:30:57;8.10;99.90
69533;DHT22;56729;52.036;5.332;2023-11-21T03:31:59;8.10;99.90
69533;DHT22;56729;52.036;5.332;2023-11-21T03:33:01;8.20;99.90
69533;DHT22;56729;52.036;5.332;2023-11-21T03:34:03;8.20;99.90
69533;DHT22;56729;52.036;5.332;2023-11-21T03:35:05;8.20;99.90
69533;DHT22;56729;52.036;5.332;2023-11-21T03:36:09;8.20;99.90
69533;DHT22;56729;52.036;5.332;2023-11-21T03:37:11;8.20;99.90
69533;DHT22;56729;52.036;5.332;2023-11-21T03:38:13;8.20;99.90
69533;DHT22;56729;52.036;5.332;2023-11-21T03:39:15;8.20;99.90
69533;DHT22;56729;52.036;5.332;2023-11-21T03:40:17;8.30;99.90
69533;DHT22;56729;52.036;5.332;2023-11-21T03:41:20;8.20;99.90
69533;DHT22;56729;52.036;5.332;2023-11-21T03:42:22;8.30;99.90
69533;DHT22;56729;52.036;5.332;2023-11-21T03:43:25;8.30;99.90
69533;DHT22;56729;52.036;5.332;2023-11-21T03:44:27;8.30;99.90
69533;DHT22;56729;52.036;5.332;2023-11-21T03:45:29;8.30;99.90
69533;DHT22;56729;52.036;5.332;2023-11-21T03:46:31;8.30;99.90
69533;DHT22;56729;52.036;5.332;2023-11-21T03:47:33;8.30;99.90
69533;DHT22;56729;52.036;5.332;2023-11-21T03:48:35;8.30;99.90
69533;DHT22;56729;52.036;5.332;2023-11-21T03:49:37;8.30;99.90
69533;DHT22;56729;52.036;5.332;2023-11-21T03:50:39;8.30;99.90
69533;DHT22;56729;52.036;5.332;2023-11-21T03:51:41;8.30;99.90
69533;DHT22;56729;52.036;5.332;2023-11-21T03:52:43;8.30;99.90
69533;DHT22;56729;52.036;5.332;2023-11-21T03:53:46;8.30;99.90
69533;DHT22;56729;52.036;5.332;2023-11-21T03:54:48;8.30;99.90
69533;DHT22;56729;52.036;5.332;2023-11-21T03:55:50;8.30;99.90
69533;DHT22;56729;52.036;5.332;2023-11-21T03:56:52;8.30;99.90
69533;DHT22;56729;52.036;5.332;2023-11-21T03:57:55;8.30;99.90
69533;DHT22;56729;52.036;5.332;2023-11-21T03:58:58;8.30;99.90
69533;DHT22;56729;52.036;5.332;2023-11-21T04:00:00;8.30;99.90
69533;DHT22;56729;52.036;5.332;2023-11-21T04:01:02;8.30;99.90
69533;DHT22;56729;52.036;5.332;2023-11-21T04:02:04;8.30;99.90
69533;DHT22;56729;52.036;5.332;2023-11-21T04:03:06;8.30;99.90
69533;DHT22;56729;52.036;5.332;2023-11-21T04:04:08;8.40;99.90
69533;DHT22;56729;52.036;5.332;2023-11-21T04:05:10;8.40;99.90
69533;DHT22;56729;52.036;5.332;2023-11-21T04:06:12;8.40;99.90
69533;DHT22;56729;52.036;5.332;2023-11-21T04:07:14;8.40;99.90
69533;DHT22;56729;52.036;5.332;2023-11-21T04:08:16;8.50;99.90
69533;DHT22;56729;52.036;5.332;2023-11-21T04:09:17;8.50;99.90
69533;DHT22;56729;52.036;5.332;2023-11-21T04:10:20;8.50;99.90
69533;DHT22;56729;52.036;5.332;2023-11-21T04:11:22;8.50;99.90
69533;DHT22;56729;52.036;5.332;2023-11-21T04:12:24;8.50;99.90
69533;DHT22;56729;52.036;5.332;2023-11-21T04:13:26;8.50;99.90
69533;DHT22;56729;52.036;5.332;2023-11-21T04:14:28;8.60;99.90
69533;DHT22;56729;52.036;5.332;2023-11-21T04:15:30;8.60;99.90
69533;DHT22;56729;52.036;5.332;2023-11-21T04:16:31;8.60;99.90
69533;DHT22;56729;52.036;5.332;2023-11-21T04:17:34;8.60;99.90
69533;DHT22;56729;52.036;5.332;2023-11-21T04:18:37;8.60;99.90
69533;DHT22;56729;52.036;5.332;2023-11-21T04:19:39;8.60;99.90
69533;DHT22;56729;52.036;5.332;2023-11-21T04:20:41;8.70;99.90
69533;DHT22;56729;52.036;5.332;2023-11-21T04:21:43;8.70;99.90
69533;DHT22;56729;52.036;5.332;2023-11-21T04:22:45;8.70;99.90
69533;DHT22;56729;52.036;5.332;2023-11-21T04:23:47;8.70;99.90
69533;DHT22;56729;52.036;5.332;2023-11-21T04:24:50;8.70;99.90
69533;DHT22;56729;52.036;5.332;2023-11-21T04:25:52;8.70;99.90
69533;DHT22;56729;52.036;5.332;2023-11-21T04:26:56;8.70;99.90
69533;DHT22;56729;52.036;5.332;2023-11-21T04:27:58;8.80;99.90
69533;DHT22;56729;52.036;5.332;2023-11-21T04:29:00;8.80;99.90
69533;DHT22;56729;52.036;5.332;2023-11-21T04:30:02;8.70;99.90
69533;DHT22;56729;52.036;5.332;2023-11-21T04:31:04;8.70;99.90
69533;DHT22;56729;52.036;5.332;2023-11-21T04:32:07;8.70;99.90
69533;DHT22;56729;52.036;5.332;2023-11-21T04:33:09;8.70;99.90
69533;DHT22;56729;52.036;5.332;2023-11-21T04:34:11;8.70;99.90
69533;DHT22;56729;52.036;5.332;2023-11-21T04:35:13;8.70;99.90
69533;DHT22;56729;52.036;5.332;2023-11-21T04:36:16;8.70;99.90
69533;DHT22;56729;52.036;5.332;2023-11-21T04:37:24;8.80;99.90
69533;DHT22;56729;52.036;5.332;2023-11-21T04:38:26;8.80;99.90
69533;DHT22;56729;52.036;5.332;2023-11-21T04:39:28;8.80;99.90
69533;DHT22;56729;52.036;5.332;2023-11-21T04:40:30;8.80;99.90
69533;DHT22;56729;52.036;5.332;2023-11-21T04:41:32;8.80;99.90
69533;DHT22;56729;52.036;5.332;2023-11-21T04:42:37;8.80;99.90
69533;DHT22;56729;52.036;5.332;2023-11-21T04:43:39;8.80;99.90
69533;DHT22;56729;52.036;5.332;2023-11-21T04:44:41;8.80;99.90
69533;DHT22;56729;52.036;5.332;2023-11-21T04:45:43;8.80;99.90
69533;DHT22;56729;52.036;5.332;2023-11-21T04:46:45;8.80;99.90
69533;DHT22;56729;52.036;5.332;2023-11-21T04:47:47;8.80;99.90
69533;DHT22;56729;52.036;5.332;2023-11-21T04:48:49;8.80;99.90
69533;DHT22;56729;52.036;5.332;2023-11-21T04:49:51;8.80;99.90
69533;DHT22;56729;52.036;5.332;2023-11-21T04:50:53;8.80;99.90
69533;DHT22;56729;52.036;5.332;2023-11-21T04:51:55;8.80;99.90
69533;DHT22;56729;52.036;5.332;2023-11-21T04:52:57;8.90;99.90
69533;DHT22;56729;52.036;5.332;2023-11-21T04:53:59;8.90;99.90
69533;DHT22;56729;52.036;5.332;2023-11-21T04:55:01;8.90;99.90
69533;DHT22;56729;52.036;5.332;2023-11-21T04:56:04;8.90;99.90
69533;DHT22;56729;52.036;5.332;2023-11-21T04:57:07;8.90;99.90
69533;DHT22;56729;52.036;5.332;2023-11-21T04:58:09;8.90;99.90
69533;DHT22;56729;52.036;5.332;2023-11-21T04:59:13;8.90;99.90
69533;DHT22;56729;52.036;5.332;2023-11-21T05:00:15;8.90;99.90
69533;DHT22;56729;52.036;5.332;2023-11-21T05:01:18;8.90;99.90
69533;DHT22;56729;52.036;5.332;2023-11-21T05:02:20;8.90;99.90
69533;DHT22;56729;52.036;5.332;2023-11-21T05:03:36;8.80;99.90
69533;DHT22;56729;52.036;5.332;2023-11-21T05:04:40;8.80;99.90
69533;DHT22;56729;52.036;5.332;2023-11-21T05:05:44;8.80;99.90
69533;DHT22;56729;52.036;5.332;2023-11-21T05:06:46;8.90;99.90
69533;DHT22;56729;52.036;5.332;2023-11-21T05:07:49;8.90;99.90
69533;DHT22;56729;52.036;5.332;2023-11-21T05:08:51;8.90;99.90
69533;DHT22;56729;52.036;5.332;2023-11-21T05:09:53;8.90;99.90
69533;DHT22;56729;52.036;5.332;2023-11-21T05:10:55;8.90;99.90
69533;DHT22;56729;52.036;5.332;2023-11-21T05:11:57;8.90;99.90
69533;DHT22;56729;52.036;5.332;2023-11-21T05:12:59;8.90;99.90
69533;DHT22;56729;52.036;5.332;2023-11-21T05:14:01;8.90;99.90
69533;DHT22;56729;52.036;5.332;2023-11-21T05:15:07;8.90;99.90
69533;DHT22;56729;52.036;5.332;2023-11-21T05:16:11;9.00;99.90
69533;DHT22;56729;52.036;5.332;2023-11-21T05:17:14;9.00;99.90
69533;DHT22;56729;52.036;5.332;2023-11-21T05:18:16;9.00;99.90
69533;DHT22;56729;52.036;5.332;2023-11-21T05:19:18;9.00;99.90
69533;DHT22;56729;52.036;5.332;2023-11-21T05:20:20;9.00;99.90
69533;DHT22;56729;52.036;5.332;2023-11-21T05:21:28;9.00;99.90
69533;DHT22;56729;52.036;5.332;2023-11-21T05:22:31;9.00;99.90
69533;DHT22;56729;52.036;5.332;2023-11-21T05:23:33;9.00;99.90
69533;DHT22;56729;52.036;5.332;2023-11-21T05:24:35;9.00;99.90
69533;DHT22;56729;52.036;5.332;2023-11-21T05:25:40;9.00;99.90
69533;DHT22;56729;52.036;5.332;2023-11-21T05:26:43;9.00;99.90
69533;DHT22;56729;52.036;5.332;2023-11-21T05:27:48;9.00;99.90
69533;DHT22;56729;52.036;5.332;2023-11-21T05:28:50;9.00;99.90
69533;DHT22;56729;52.036;5.332;2023-11-21T05:29:52;9.00;99.90
69533;DHT22;56729;52.036;5.332;2023-11-21T05:30:54;9.00;99.90
69533;DHT22;56729;52.036;5.332;2023-11-21T05:32:14;9.00;99.90
69533;DHT22;56729;52.036;5.332;2023-11-21T05:33:16;9.00;99.90
69533;DHT22;56729;52.036;5.332;2023-11-21T05:34:18;9.00;99.90
69533;DHT22;56729;52.036;5.332;2023-11-21T05:35:22;9.00;99.90
69533;DHT22;56729;52.036;5.332;2023-11-21T05:36:24;9.00;99.90
69533;DHT22;56729;52.036;5.332;2023-11-21T05:37:26;9.00;99.90
69533;DHT22;56729;52.036;5.332;2023-11-21T05:38:28;9.10;99.90
69533;DHT22;56729;52.036;5.332;2023-11-21T05:39:31;9.00;99.90
69533;DHT22;56729;52.036;5.332;2023-11-21T05:40:33;9.10;99.90
69533;DHT22;56729;52.036;5.332;2023-11-21T05:41:35;9.00;99.90
69533;DHT22;56729;52.036;5.332;2023-11-21T05:42:37;9.10;99.90
69533;DHT22;56729;52.036;5.332;2023-11-21T05:43:40;9.00;99.90
69533;DHT22;56729;52.036;5.332;2023-11-21T05:44:42;9.10;99.90
69533;DHT22;56729;52.036;5.332;2023-11-21T05:45:45;9.10;99.90
69533;DHT22;56729;52.036;5.332;2023-11-21T05:46:48;9.10;99.90
69533;DHT22;56729;52.036;5.332;2023-11-21T05:47:50;9.10;99.90
69533;DHT22;56729;52.036;5.332;2023-11-21T05:48:52;9.10;99.90
69533;DHT22;56729;52.036;5.332;2023-11-21T05:49:54;9.10;99.90
69533;DHT22;56729;52.036;5.332;2023-11-21T05:50:56;9.10;99.90
69533;DHT22;56729;52.036;5.332;2023-11-21T05:51:59;9.10;99.90
69533;DHT22;56729;52.036;5.332;2023-11-21T05:53:03;9.10;99.90
69533;DHT22;56729;52.036;5.332;2023-11-21T05:54:06;9.10;99.90
69533;DHT22;56729;52.036;5.332;2023-11-21T05:55:08;9.10;99.90
69533;DHT22;56729;52.036;5.332;2023-11-21T05:56:10;9.10;99.90
69533;DHT22;56729;52.036;5.332;2023-11-21T05:57:16;9.00;99.90
69533;DHT22;56729;52.036;5.332;2023-11-21T05:58:18;9.10;99.90
69533;DHT22;56729;52.036;5.332;2023-11-21T05:59:20;9.00;99.90
69533;DHT22;56729;52.036;5.332;2023-11-21T06:00:25;9.00;99.90
69533;DHT22;56729;52.036;5.332;2023-11-21T06:01:27;9.00;99.90
69533;DHT22;56729;52.036;5.332;2023-11-21T06:02:31;9.10;99.90
69533;DHT22;56729;52.036;5.332;2023-11-21T06:03:33;9.00;99.90
69533;DHT22;56729;52.036;5.332;2023-11-21T06:04:35;9.10;99.90
69533;DHT22;56729;52.036;5.332;2023-11-21T06:05:38;9.10;99.90
69533;DHT22;56729;52.036;5.332;2023-11-21T06:06:40;9.10;99.90
69533;DHT22;56729;52.036;5.332;2023-11-21T06:07:42;9.10;99.90
69533;DHT22;56729;52.036;5.332;2023-11-21T06:08:44;9.10;99.90
69533;DHT22;56729;52.036;5.332;2023-11-21T06:09:46;9.10;99.90
69533;DHT22;56729;52.036;5.332;2023-11-21T06:10:50;9.10;99.90
69533;DHT22;56729;52.036;5.332;2023-11-21T06:11:52;9.10;99.90
69533;DHT22;56729;52.036;5.332;2023-11-21T06:12:54;9.20;99.90
69533;DHT22;56729;52.036;5.332;2023-11-21T06:13:56;9.20;99.90
69533;DHT22;56729;52.036;5.332;2023-11-21T06:14:57;9.20;99.90
69533;DHT22;56729;52.036;5.332;2023-11-21T06:15:59;9.20;99.90
69533;DHT22;56729;52.036;5.332;2023-11-21T06:17:02;9.20;99.90
69533;DHT22;56729;52.036;5.332;2023-11-21T06:18:04;9.20;99.90
69533;DHT22;56729;52.036;5.332;2023-11-21T06:19:08;9.20;99.90
69533;DHT22;56729;52.036;5.332;2023-11-21T06:20:10;9.20;99.90
69533;DHT22;56729;52.036;5.332;2023-11-21T06:21:16;9.20;99.90
69533;DHT22;56729;52.036;5.332;2023-11-21T06:22:20;9.20;99.90
69533;DHT22;56729;52.036;5.332;2023-11-21T06:23:21;9.20;99.90
69533;DHT22;56729;52.036;5.332;2023-11-21T06:24:23;9.30;99.90
69533;DHT22;56729;52.036;5.332;2023-11-21T06:25:25;9.30;99.90
69533;DHT22;56729;52.036;5.332;2023-11-21T06:26:27;9.30;99.90
69533;DHT22;56729;52.036;5.332;2023-11-21T06:27:32;9.30;99.90
69533;DHT22;56729;52.036;5.332;2023-11-21T06:28:35;9.30;99.90
69533;DHT22;56729;52.036;5.332;2023-11-21T06:29:37;9.30;99.90
69533;DHT22;56729;52.036;5.332;2023-11-21T06:30:40;9.20;99.90
69533;DHT22;56729;52.036;5.332;2023-11-21T06:31:42;9.20;99.90
69533;DHT22;56729;52.036;5.332;2023-11-21T06:32:45;9.20;99.90
69533;DHT22;56729;52.036;5.332;2023-11-21T06:33:49;9.20;99.90
69533;DHT22;56729;52.036;5.332;2023-11-21T06:34:53;9.30;99.90
69533;DHT22;56729;52.036;5.332;2023-11-21T06:35:56;9.20;99.90
69533;DHT22;56729;52.036;5.332;2023-11-21T06:36:58;9.20;99.90
69533;DHT22;56729;52.036;5.332;2023-11-21T06:38:00;9.30;99.90
69533;DHT22;56729;52.036;5.332;2023-11-21T06:39:02;9.30;99.90
69533;DHT22;56729;52.036;5.332;2023-11-21T06:40:04;9.20;99.90
69533;DHT22;56729;52.036;5.332;2023-11-21T06:41:07;9.20;99.90
69533;DHT22;56729;52.036;5.332;2023-11-21T06:42:09;9.20;99.90